Terminal Aerodrome Forecast
Issued by NWS

Home | Current Version | Previous Version | Text Only | Print | Product List | Glossary Off
Versions: 1 2 3 4 5 6 7 8 9 10 11 12 13 14 15 16

595
FTUS43 KIWX 271120
TAFSBN
TAF
KSBN 271120Z 2712/2812 12005KT 6SM SHRA VCTS BKN050CB OVC120
      TEMPO 2712/2714 3SM -TSRA BR SCT025 OVC040CB
     FM271400 14007KT P6SM VCTS SCT050CB OVC100
      TEMPO 2716/2718 3SM -TSRA OVC030CB
     FM271900 18007KT P6SM SCT040 BKN120
     FM280700 24003KT 3SM BR BKN150=

USA.gov is the U.S. government's official web portal to all federal, state and local government web resources and services.